createdAt,value
2018-12-06T00:00:15.405Z,15.50
2018-12-06T00:01:15.401Z,9.80
2018-12-06T00:02:16.002Z,9.00
2018-12-06T00:03:15.384Z,10.60
2018-12-06T00:04:16.320Z,11.10
2018-12-06T00:05:15.929Z,8.50
2018-12-06T00:06:18.957Z,8.40
2018-12-06T00:07:15.339Z,11.00
2018-12-06T00:08:16.908Z,13.90
2018-12-06T00:09:15.342Z,10.60
2018-12-06T00:10:15.284Z,8.90
2018-12-06T00:11:15.297Z,8.90
2018-12-06T00:12:15.273Z,11.10
2018-12-06T00:13:15.262Z,11.40
2018-12-06T00:14:15.256Z,11.50
2018-12-06T00:15:15.269Z,12.80
2018-12-06T00:16:15.233Z,11.90
2018-12-06T00:17:15.902Z,11.00
2018-12-06T00:18:15.214Z,12.40
2018-12-06T00:19:15.188Z,12.70
2018-12-06T00:20:15.205Z,10.30
2018-12-06T00:21:15.202Z,9.50
2018-12-06T00:22:15.173Z,7.80
2018-12-06T00:23:15.158Z,8.90
2018-12-06T00:24:15.147Z,13.00
2018-12-06T00:25:15.135Z,9.60
2018-12-06T00:26:15.149Z,14.80
2018-12-06T00:27:15.128Z,16.60
2018-12-06T00:28:15.097Z,12.40
2018-12-06T00:29:15.089Z,11.80
2018-12-06T00:30:15.079Z,11.60
2018-12-06T00:31:15.089Z,12.00
2018-12-06T00:32:15.059Z,14.10
2018-12-06T00:33:15.057Z,11.20
2018-12-06T00:34:15.052Z,11.80
2018-12-06T00:35:15.023Z,16.80
2018-12-06T00:36:15.906Z,15.30
2018-12-06T00:37:15.021Z,13.20
2018-12-06T00:38:15.008Z,12.80
2018-12-06T00:39:15.006Z,11.60
2018-12-06T00:40:14.971Z,11.80
2018-12-06T00:41:15.963Z,9.70
2018-12-06T00:42:14.992Z,11.00
2018-12-06T00:43:15.008Z,13.30
2018-12-06T00:44:14.924Z,13.70
2018-12-06T00:45:14.932Z,18.60
2018-12-06T00:46:14.914Z,12.00
2018-12-06T00:47:14.982Z,11.70
2018-12-06T00:48:14.892Z,17.30
2018-12-06T00:49:14.887Z,12.00
2018-12-06T00:50:14.871Z,13.90
2018-12-06T00:51:14.861Z,23.90
2018-12-06T00:52:14.851Z,24.50
2018-12-06T00:53:14.859Z,10.10
2018-12-06T00:54:14.852Z,17.90
2018-12-06T00:55:14.835Z,14.50
2018-12-06T00:56:14.809Z,17.20
2018-12-06T00:57:14.812Z,15.90
2018-12-06T00:58:14.784Z,15.30
2018-12-06T00:59:14.782Z,23.90
2018-12-06T01:00:14.763Z,23.20
2018-12-06T01:01:14.760Z,24.70
2018-12-06T01:02:14.763Z,23.90
2018-12-06T01:03:14.741Z,23.30
2018-12-06T01:04:15.903Z,20.50
2018-12-06T01:05:14.733Z,21.20
2018-12-06T01:06:14.689Z,15.30
2018-12-06T01:07:14.716Z,24.20
2018-12-06T01:08:14.699Z,21.30
2018-12-06T01:09:14.669Z,12.10
2018-12-06T01:10:14.674Z,15.90
2018-12-06T01:11:14.642Z,11.60
2018-12-06T01:12:14.649Z,11.00
2018-12-06T01:13:14.621Z,10.70
2018-12-06T01:14:14.659Z,9.70
2018-12-06T01:15:14.627Z,8.30
2018-12-06T01:16:14.617Z,10.30
2018-12-06T01:17:14.576Z,11.10
2018-12-06T01:18:14.574Z,9.20
2018-12-06T01:19:16.437Z,11.70
2018-12-06T01:20:14.544Z,8.10
2018-12-06T01:21:14.537Z,10.90
2018-12-06T01:22:14.558Z,11.30
2018-12-06T01:23:14.538Z,10.00
2018-12-06T01:24:14.502Z,10.70
2018-12-06T01:25:14.496Z,13.40
2018-12-06T01:26:15.430Z,9.20
2018-12-06T01:27:14.471Z,8.50
2018-12-06T01:28:14.464Z,10.70
2018-12-06T01:29:14.481Z,10.80
2018-12-06T01:30:14.450Z,14.20
2018-12-06T01:31:14.451Z,10.90
2018-12-06T01:32:14.420Z,10.90
2018-12-06T01:33:14.950Z,8.10
2018-12-06T01:34:14.393Z,7.10
2018-12-06T01:35:14.412Z,11.50
2018-12-06T01:36:14.381Z,12.60
2018-12-06T01:37:15.953Z,15.30
2018-12-06T01:38:14.351Z,9.20
2018-12-06T01:39:14.350Z,9.70
2018-12-06T01:40:14.343Z,9.50
2018-12-06T01:41:14.363Z,8.00
2018-12-06T01:42:14.320Z,8.70
2018-12-06T01:43:14.318Z,8.20
2018-12-06T01:44:14.946Z,8.50
2018-12-06T01:45:14.293Z,7.70
2018-12-06T01:46:14.298Z,5.90
2018-12-06T01:47:14.261Z,8.00
2018-12-06T01:48:14.248Z,6.70
2018-12-06T01:49:14.246Z,7.00
2018-12-06T01:50:14.241Z,9.50
2018-12-06T01:51:14.225Z,10.00
2018-12-06T01:52:14.229Z,11.70
2018-12-06T01:53:14.200Z,14.40
2018-12-06T01:54:14.190Z,19.40
2018-12-06T01:55:14.184Z,25.90
2018-12-06T01:56:14.203Z,9.60
2018-12-06T01:57:14.164Z,7.60
2018-12-06T01:58:14.181Z,8.10
2018-12-06T01:59:14.163Z,7.80
2018-12-06T02:00:14.157Z,7.10
2018-12-06T02:01:14.171Z,8.60
2018-12-06T02:02:14.178Z,6.10
2018-12-06T02:03:14.110Z,6.30
2018-12-06T02:04:14.086Z,7.10
2018-12-06T02:05:14.094Z,5.40
2018-12-06T02:06:14.077Z,6.50
2018-12-06T02:07:14.074Z,4.80
2018-12-06T02:08:14.058Z,6.60
2018-12-06T02:09:14.026Z,6.20
2018-12-06T02:10:14.027Z,6.60
2018-12-06T02:11:14.014Z,5.70
2018-12-06T02:12:15.950Z,6.40
2018-12-06T02:13:14.025Z,6.30
2018-12-06T02:14:13.976Z,5.30
2018-12-06T02:15:13.967Z,7.80
2018-12-06T02:16:13.961Z,7.10
2018-12-06T02:17:13.947Z,9.30
2018-12-06T02:18:13.939Z,6.20
2018-12-06T02:19:13.940Z,11.20
2018-12-06T02:20:13.915Z,6.50
2018-12-06T02:21:13.893Z,8.00
2018-12-06T02:22:13.889Z,6.60
2018-12-06T02:23:13.875Z,6.60
2018-12-06T02:24:13.931Z,6.90
2018-12-06T02:25:13.868Z,7.40
2018-12-06T02:26:14.441Z,10.40
2018-12-06T02:27:13.832Z,7.30
2018-12-06T02:28:13.844Z,6.70
2018-12-06T02:29:13.814Z,6.90
2018-12-06T02:30:13.823Z,9.60
2018-12-06T02:31:13.798Z,7.20
2018-12-06T02:32:13.804Z,12.00
2018-12-06T02:33:13.838Z,8.30
2018-12-06T02:34:13.787Z,7.90
2018-12-06T02:35:13.752Z,13.90
2018-12-06T02:36:13.793Z,15.70
2018-12-06T02:37:13.741Z,14.40
2018-12-06T02:38:13.711Z,6.20
2018-12-06T02:39:13.706Z,9.20
2018-12-06T02:40:13.695Z,9.60
2018-12-06T02:41:13.775Z,15.10
2018-12-06T02:42:13.694Z,9.20
2018-12-06T02:43:14.392Z,7.80
2018-12-06T02:44:14.389Z,9.30
2018-12-06T02:45:13.644Z,6.50
2018-12-06T02:46:13.629Z,12.40
2018-12-06T02:47:13.642Z,9.10
2018-12-06T02:48:13.625Z,9.60
2018-12-06T02:49:14.398Z,10.20
2018-12-06T02:50:13.597Z,6.90
2018-12-06T02:51:13.581Z,6.90
2018-12-06T02:52:13.623Z,9.70
2018-12-06T02:53:14.404Z,7.20
2018-12-06T02:54:13.570Z,6.20
2018-12-06T02:55:13.546Z,8.60
2018-12-06T02:56:13.531Z,7.70
2018-12-06T02:57:13.519Z,7.80
2018-12-06T02:58:13.526Z,7.40
2018-12-06T02:59:13.617Z,7.90
2018-12-06T03:00:13.501Z,5.00
2018-12-06T03:01:15.448Z,8.50
2018-12-06T03:02:13.461Z,11.10
2018-12-06T03:03:13.451Z,12.20
2018-12-06T03:04:13.471Z,12.70
2018-12-06T03:05:13.434Z,6.60
2018-12-06T03:06:13.448Z,9.30
2018-12-06T03:07:13.411Z,7.90
2018-12-06T03:08:13.403Z,9.10
2018-12-06T03:09:13.391Z,14.10
2018-12-06T03:10:21.584Z,9.70
2018-12-06T03:11:13.387Z,13.30
2018-12-06T03:12:13.349Z,10.90
2018-12-06T03:13:13.338Z,9.70
2018-12-06T03:14:13.350Z,11.90
2018-12-06T03:15:13.334Z,7.60
2018-12-06T03:16:13.338Z,6.90
2018-12-06T03:17:13.298Z,6.20
2018-12-06T03:18:13.279Z,8.30
2018-12-06T03:19:13.274Z,8.80
2018-12-06T03:20:13.261Z,7.10
2018-12-06T03:21:13.277Z,8.20
2018-12-06T03:22:13.243Z,11.30
2018-12-06T03:23:13.280Z,6.70
2018-12-06T03:24:13.238Z,7.60
2018-12-06T03:25:13.208Z,6.50
2018-12-06T03:26:13.210Z,9.90
2018-12-06T03:27:13.197Z,6.50
2018-12-06T03:28:13.190Z,6.50
2018-12-06T03:29:13.185Z,7.70
2018-12-06T03:30:13.161Z,5.60
2018-12-06T03:31:13.157Z,9.20
2018-12-06T03:32:13.141Z,6.90
2018-12-06T03:33:13.147Z,10.40
2018-12-06T03:34:13.246Z,12.00
2018-12-06T03:35:13.152Z,6.30
2018-12-06T03:36:13.123Z,9.60
2018-12-06T03:37:13.088Z,7.30
2018-12-06T03:38:13.078Z,5.70
2018-12-06T03:39:13.071Z,7.80
2018-12-06T03:40:13.100Z,9.00
2018-12-06T03:41:13.052Z,5.60
2018-12-06T03:42:13.033Z,8.70
2018-12-06T03:43:13.028Z,4.50
2018-12-06T03:44:13.023Z,7.00
2018-12-06T03:45:13.039Z,4.90
2018-12-06T03:46:13.004Z,5.90
2018-12-06T03:47:14.948Z,4.80
2018-12-06T03:48:12.987Z,7.00
2018-12-06T03:49:12.971Z,5.60
2018-12-06T03:50:12.960Z,6.90
2018-12-06T03:51:12.991Z,4.90
2018-12-06T03:52:13.933Z,9.00
2018-12-06T03:53:13.927Z,6.50
2018-12-06T03:54:12.905Z,9.00
2018-12-06T03:55:12.916Z,8.70
2018-12-06T03:56:12.925Z,8.20
2018-12-06T03:57:12.888Z,8.50
2018-12-06T03:58:13.448Z,7.20
2018-12-06T03:59:12.863Z,7.90
2018-12-06T04:00:12.871Z,8.90
2018-12-06T04:01:12.852Z,9.10
2018-12-06T04:02:14.481Z,5.70
2018-12-06T04:03:12.828Z,9.80
2018-12-06T04:04:12.818Z,6.40
2018-12-06T04:05:12.816Z,7.20
2018-12-06T04:06:12.799Z,11.10
2018-12-06T04:07:12.777Z,5.50
2018-12-06T04:08:12.770Z,7.20
2018-12-06T04:09:12.755Z,9.40
2018-12-06T04:10:12.730Z,8.20
2018-12-06T04:11:14.490Z,7.10
2018-12-06T04:12:12.999Z,6.50
2018-12-06T04:13:12.752Z,5.70
2018-12-06T04:14:12.741Z,9.10
2018-12-06T04:15:12.753Z,12.70
2018-12-06T04:16:12.688Z,8.10
2018-12-06T04:17:12.695Z,7.20
2018-12-06T04:18:12.660Z,8.40
2018-12-06T04:19:14.520Z,6.70
2018-12-06T04:20:12.668Z,6.20
2018-12-06T04:21:12.634Z,11.10
2018-12-06T04:22:15.491Z,10.90
2018-12-06T04:23:12.615Z,10.90
2018-12-06T04:24:12.582Z,7.40
2018-12-06T04:25:12.583Z,10.10
2018-12-06T04:26:12.581Z,10.90
2018-12-06T04:27:12.568Z,15.90
2018-12-06T04:28:12.566Z,10.60
2018-12-06T04:29:12.530Z,7.00
2018-12-06T04:30:12.525Z,7.00
2018-12-06T04:31:12.534Z,6.70
2018-12-06T04:32:12.502Z,10.60
2018-12-06T04:33:12.498Z,11.40
2018-12-06T04:34:13.986Z,6.10
2018-12-06T04:35:12.469Z,5.90
2018-12-06T04:36:13.990Z,7.60
2018-12-06T04:37:12.527Z,8.60
2018-12-06T04:38:12.449Z,5.20
2018-12-06T04:39:13.449Z,8.00
2018-12-06T04:40:12.406Z,9.40
2018-12-06T04:41:13.412Z,6.50
2018-12-06T04:42:12.397Z,5.80
2018-12-06T04:43:12.404Z,11.00
2018-12-06T04:44:12.382Z,6.40
2018-12-06T04:45:12.379Z,7.80
2018-12-06T04:46:12.362Z,6.60
2018-12-06T04:47:14.256Z,11.10
2018-12-06T04:48:12.342Z,7.50
2018-12-06T04:49:12.320Z,9.30
2018-12-06T04:50:12.316Z,6.90
2018-12-06T04:51:12.307Z,11.20
2018-12-06T04:52:13.310Z,14.80
2018-12-06T04:53:12.974Z,5.80
2018-12-06T04:54:12.264Z,10.20
2018-12-06T04:55:12.304Z,5.10
2018-12-06T04:56:12.255Z,10.10
2018-12-06T04:57:12.240Z,5.60
2018-12-06T04:58:12.239Z,5.60
2018-12-06T04:59:13.972Z,7.60
2018-12-06T05:00:12.223Z,11.10
2018-12-06T05:01:12.206Z,9.40
2018-12-06T05:02:12.178Z,6.60
2018-12-06T05:03:12.193Z,8.20
2018-12-06T05:04:12.158Z,7.30
2018-12-06T05:05:12.146Z,5.30
2018-12-06T05:06:12.154Z,6.70
2018-12-06T05:07:12.147Z,8.60
2018-12-06T05:08:12.105Z,6.80
2018-12-06T05:09:12.108Z,5.30
2018-12-06T05:10:12.099Z,6.60
2018-12-06T05:11:12.097Z,8.20
2018-12-06T05:12:12.074Z,9.30
2018-12-06T05:13:12.070Z,7.60
2018-12-06T05:14:12.079Z,6.50
2018-12-06T05:15:12.050Z,9.10
2018-12-06T05:16:12.032Z,6.60
2018-12-06T05:17:12.021Z,5.00
2018-12-06T05:18:12.007Z,6.20
2018-12-06T05:19:12.006Z,3.70
2018-12-06T05:20:13.992Z,6.60
2018-12-06T05:21:11.986Z,6.30
2018-12-06T05:22:11.995Z,7.80
2018-12-06T05:23:13.488Z,8.00
2018-12-06T05:24:11.950Z,10.90
2018-12-06T05:25:13.469Z,11.00
2018-12-06T05:26:11.943Z,9.70
2018-12-06T05:27:11.921Z,13.60
2018-12-06T05:28:12.897Z,6.40
2018-12-06T05:29:11.889Z,5.80
2018-12-06T05:30:11.896Z,5.30
2018-12-06T05:31:11.866Z,7.40
2018-12-06T05:32:11.900Z,7.70
2018-12-06T05:33:11.848Z,6.50
2018-12-06T05:34:11.834Z,6.50
2018-12-06T05:35:11.844Z,5.60
2018-12-06T05:36:11.843Z,11.00
2018-12-06T05:37:11.924Z,8.80
2018-12-06T05:38:11.794Z,5.60
2018-12-06T05:39:11.784Z,9.70
2018-12-06T05:40:11.767Z,6.00
2018-12-06T05:41:11.762Z,5.90
2018-12-06T05:42:11.752Z,8.50
2018-12-06T05:43:11.746Z,6.10
2018-12-06T05:44:11.727Z,10.60
2018-12-06T05:45:12.468Z,7.50
2018-12-06T05:46:11.703Z,6.00
2018-12-06T05:47:11.721Z,6.20
2018-12-06T05:48:11.689Z,6.30
2018-12-06T05:49:11.671Z,8.80
2018-12-06T05:50:11.664Z,5.90
2018-12-06T05:51:11.650Z,7.00
2018-12-06T05:52:11.649Z,6.60
2018-12-06T05:53:12.674Z,6.50
2018-12-06T05:54:11.646Z,6.30
2018-12-06T05:55:11.610Z,6.50
2018-12-06T05:56:13.763Z,8.80
2018-12-06T05:57:13.780Z,9.40
2018-12-06T05:58:11.585Z,6.50
2018-12-06T05:59:11.595Z,6.50
2018-12-06T06:00:11.641Z,6.70
2018-12-06T06:01:11.539Z,11.30
2018-12-06T06:02:11.546Z,5.60
2018-12-06T06:03:11.520Z,6.20
2018-12-06T06:04:14.487Z,4.90
2018-12-06T06:05:11.509Z,6.00
2018-12-06T06:06:11.489Z,5.30
2018-12-06T06:07:11.480Z,4.30
2018-12-06T06:08:11.465Z,5.80
2018-12-06T06:09:11.484Z,5.30
2018-12-06T06:10:11.474Z,5.10
2018-12-06T06:11:12.981Z,7.10
2018-12-06T06:12:11.422Z,4.80
2018-12-06T06:13:11.408Z,5.60
2018-12-06T06:14:12.424Z,8.70
2018-12-06T06:15:11.408Z,6.00
2018-12-06T06:16:11.397Z,5.60
2018-12-06T06:17:11.388Z,5.80
2018-12-06T06:18:11.376Z,8.00
2018-12-06T06:19:11.356Z,5.80
2018-12-06T06:20:12.985Z,6.90
2018-12-06T06:21:11.380Z,5.10
2018-12-06T06:22:11.363Z,5.10
2018-12-06T06:23:11.984Z,5.00
2018-12-06T06:24:18.478Z,6.40
2018-12-06T06:25:11.280Z,6.70
2018-12-06T06:26:11.276Z,5.20
2018-12-06T06:27:11.298Z,7.00
2018-12-06T06:28:11.963Z,5.70
2018-12-06T06:29:11.252Z,6.10
2018-12-06T06:30:11.963Z,6.20
2018-12-06T06:31:11.996Z,7.10
2018-12-06T06:32:11.220Z,5.70
2018-12-06T06:33:11.202Z,5.60
2018-12-06T06:34:11.203Z,5.20
2018-12-06T06:35:11.179Z,6.90
2018-12-06T06:36:11.163Z,6.40
2018-12-06T06:37:11.155Z,6.20
2018-12-06T06:38:11.141Z,7.30
2018-12-06T06:39:11.522Z,6.40
2018-12-06T06:40:11.121Z,7.20
2018-12-06T06:41:19.277Z,6.70
2018-12-06T06:42:19.308Z,8.40
2018-12-06T06:43:20.104Z,6.60
2018-12-06T06:44:19.653Z,10.60
2018-12-06T06:45:11.075Z,7.10
2018-12-06T06:46:11.624Z,6.10
2018-12-06T06:47:11.044Z,5.00
2018-12-06T06:48:11.030Z,6.70
2018-12-06T06:49:14.023Z,8.30
2018-12-06T06:50:11.037Z,6.90
2018-12-06T06:51:11.011Z,8.60
2018-12-06T06:52:10.984Z,4.50
2018-12-06T06:53:10.980Z,6.80
2018-12-06T06:54:10.972Z,4.90
2018-12-06T06:55:10.958Z,6.40
2018-12-06T06:56:10.974Z,6.20
2018-12-06T06:57:11.938Z,6.10
2018-12-06T06:58:10.936Z,5.80
2018-12-06T06:59:10.914Z,6.20
2018-12-06T07:00:10.913Z,7.20
2018-12-06T07:01:10.921Z,5.20
2018-12-06T07:02:10.905Z,6.80
2018-12-06T07:03:11.598Z,6.30
2018-12-06T07:04:10.871Z,6.70
2018-12-06T07:05:10.857Z,7.30
2018-12-06T07:06:13.164Z,5.20
2018-12-06T07:07:10.868Z,5.20
2018-12-06T07:08:11.619Z,7.50
2018-12-06T07:09:10.808Z,7.40
2018-12-06T07:10:10.809Z,5.60
2018-12-06T07:11:10.803Z,5.20
2018-12-06T07:12:10.807Z,6.40
2018-12-06T07:13:10.788Z,6.70
2018-12-06T07:14:10.777Z,7.90
2018-12-06T07:15:10.763Z,6.40
2018-12-06T07:16:10.749Z,7.40
2018-12-06T07:17:10.760Z,7.70
2018-12-06T07:18:10.750Z,5.60
2018-12-06T07:19:10.710Z,6.10
2018-12-06T07:20:10.710Z,6.50
2018-12-06T07:21:10.706Z,5.70
2018-12-06T07:22:10.678Z,11.30
2018-12-06T07:23:10.722Z,8.80
2018-12-06T07:24:10.701Z,5.90
2018-12-06T07:25:10.697Z,7.90
2018-12-06T07:26:10.661Z,11.40
2018-12-06T07:27:10.629Z,8.10
2018-12-06T07:28:10.615Z,9.10
2018-12-06T07:29:13.099Z,5.70
2018-12-06T07:30:12.695Z,6.00
2018-12-06T07:31:10.603Z,6.70
2018-12-06T07:32:10.601Z,7.40
2018-12-06T07:33:10.602Z,7.20
2018-12-06T07:34:10.583Z,7.60
2018-12-06T07:35:10.553Z,8.40
2018-12-06T07:36:12.154Z,8.50
2018-12-06T07:37:10.534Z,6.50
2018-12-06T07:38:17.646Z,4.80
2018-12-06T07:39:13.178Z,7.10
2018-12-06T07:40:10.556Z,7.00
2018-12-06T07:41:10.521Z,9.80
2018-12-06T07:42:10.541Z,8.00
2018-12-06T07:43:10.460Z,6.80
2018-12-06T07:44:17.577Z,6.20
2018-12-06T07:45:18.078Z,5.90
2018-12-06T07:46:10.432Z,6.70
2018-12-06T07:47:18.591Z,7.40
2018-12-06T07:48:17.606Z,8.00
2018-12-06T07:49:17.523Z,6.80
2018-12-06T07:50:17.550Z,7.60
2018-12-06T07:51:17.535Z,7.70
2018-12-06T07:52:10.359Z,5.90
2018-12-06T07:53:17.587Z,6.30
2018-12-06T07:54:18.544Z,5.80
2018-12-06T07:55:10.320Z,7.10
2018-12-06T07:56:10.389Z,6.10
2018-12-06T07:57:10.302Z,6.40
2018-12-06T07:58:10.313Z,7.30
2018-12-06T07:59:10.282Z,6.00
2018-12-06T08:00:11.036Z,5.70
2018-12-06T08:01:10.256Z,6.20
2018-12-06T08:02:10.260Z,6.00
2018-12-06T08:03:10.240Z,5.60
2018-12-06T08:04:10.235Z,5.40
2018-12-06T08:05:10.213Z,6.10
2018-12-06T08:06:11.004Z,6.50
2018-12-06T08:07:10.207Z,6.10
2018-12-06T08:08:10.211Z,6.30
2018-12-06T08:09:10.176Z,6.90
2018-12-06T08:10:10.190Z,7.90
2018-12-06T08:11:10.184Z,6.70
2018-12-06T08:12:11.020Z,7.00
2018-12-06T08:13:10.154Z,6.90
2018-12-06T08:14:10.164Z,6.20
2018-12-06T08:15:10.136Z,6.70
2018-12-06T08:16:10.146Z,6.80
2018-12-06T08:17:10.095Z,5.40
2018-12-06T08:18:10.103Z,7.50
2018-12-06T08:19:10.101Z,6.50
2018-12-06T08:20:10.062Z,5.30
2018-12-06T08:21:12.057Z,6.30
2018-12-06T08:22:10.052Z,6.00
2018-12-06T08:23:10.041Z,6.30
2018-12-06T08:24:10.047Z,6.60
2018-12-06T08:25:10.021Z,5.10
2018-12-06T08:26:10.001Z,5.80
2018-12-06T08:27:11.537Z,5.60
2018-12-06T08:28:10.519Z,5.30
2018-12-06T08:29:10.016Z,5.60
2018-12-06T08:30:10.952Z,5.80
2018-12-06T08:31:09.940Z,6.40
2018-12-06T08:32:09.945Z,10.30
2018-12-06T08:33:09.927Z,9.10
2018-12-06T08:34:09.918Z,8.90
2018-12-06T08:35:09.937Z,8.10
2018-12-06T08:36:09.895Z,7.90
2018-12-06T08:37:09.882Z,8.50
2018-12-06T08:38:09.868Z,12.90
2018-12-06T08:39:09.872Z,16.10
2018-12-06T08:40:09.859Z,7.70
2018-12-06T08:41:11.553Z,14.40
2018-12-06T08:42:09.829Z,16.60
2018-12-06T08:43:09.813Z,15.50
2018-12-06T08:44:09.841Z,9.40
2018-12-06T08:45:09.804Z,8.70
2018-12-06T08:46:09.784Z,14.10
2018-12-06T08:47:09.808Z,20.00
2018-12-06T08:48:10.776Z,13.90
2018-12-06T08:49:09.756Z,8.60
2018-12-06T08:50:09.746Z,12.40
2018-12-06T08:51:09.765Z,17.90
2018-12-06T08:52:09.719Z,20.80
2018-12-06T08:53:09.754Z,15.50
2018-12-06T08:54:09.727Z,11.60
2018-12-06T08:55:09.700Z,12.10
2018-12-06T08:56:09.693Z,27.80
2018-12-06T08:57:09.669Z,17.20
2018-12-06T08:58:10.524Z,11.00
2018-12-06T08:59:09.665Z,15.30
2018-12-06T09:00:09.643Z,14.10
2018-12-06T09:01:09.639Z,13.70
2018-12-06T09:02:09.623Z,18.20
2018-12-06T09:03:09.616Z,23.80
2018-12-06T09:04:10.649Z,13.80
2018-12-06T09:05:09.589Z,10.30
2018-12-06T09:06:09.571Z,15.40
2018-12-06T09:07:09.562Z,13.00
2018-12-06T09:08:09.541Z,7.60
2018-12-06T09:09:09.558Z,13.50
2018-12-06T09:10:09.566Z,9.40
2018-12-06T09:11:09.565Z,21.50
2018-12-06T09:12:10.528Z,12.10
2018-12-06T09:13:10.512Z,10.00
2018-12-06T09:14:09.487Z,10.60
2018-12-06T09:15:11.059Z,16.30
2018-12-06T09:16:09.464Z,9.60
2018-12-06T09:17:09.472Z,11.40
2018-12-06T09:18:09.443Z,17.20
2018-12-06T09:19:09.447Z,18.50
2018-12-06T09:20:09.425Z,22.50
2018-12-06T09:21:09.432Z,17.20
2018-12-06T09:22:09.432Z,14.30
2018-12-06T09:23:09.410Z,14.00
2018-12-06T09:24:09.380Z,17.10
2018-12-06T09:25:09.366Z,14.30
2018-12-06T09:26:09.360Z,15.40
2018-12-06T09:27:11.049Z,13.40
2018-12-06T09:28:09.372Z,8.70
2018-12-06T09:29:09.333Z,18.70
2018-12-06T09:30:09.318Z,20.90
2018-12-06T09:31:09.318Z,14.50
2018-12-06T09:32:09.324Z,11.80
2018-12-06T09:33:10.002Z,14.10
2018-12-06T09:34:09.275Z,25.50
2018-12-06T09:35:09.260Z,17.90
2018-12-06T09:36:09.264Z,24.20
2018-12-06T09:37:09.237Z,28.50
2018-12-06T09:38:09.282Z,20.30
2018-12-06T09:39:09.231Z,33.50
2018-12-06T09:40:09.206Z,15.50
2018-12-06T09:41:09.198Z,22.60
2018-12-06T09:42:09.195Z,21.50
2018-12-06T09:43:09.173Z,19.80
2018-12-06T09:44:09.181Z,20.00
2018-12-06T09:45:09.159Z,18.60
2018-12-06T09:46:09.147Z,17.10
2018-12-06T09:47:09.135Z,22.90
2018-12-06T09:49:04.748Z,18.70
2018-12-06T09:50:02.724Z,19.00
2018-12-06T09:51:01.014Z,21.30
2018-12-06T09:52:01.698Z,17.40
2018-12-06T09:53:00.924Z,20.00
2018-12-06T09:54:00.918Z,22.30
2018-12-06T09:55:01.250Z,25.20
2018-12-06T09:56:02.737Z,31.40
2018-12-06T09:57:00.870Z,27.60
2018-12-06T09:58:00.883Z,19.70
2018-12-06T09:59:00.858Z,25.20
2018-12-06T10:00:01.666Z,15.90
2018-12-06T10:01:00.842Z,20.50
2018-12-06T10:02:00.837Z,20.20
2018-12-06T10:03:00.832Z,19.60
2018-12-06T10:04:00.823Z,20.70
2018-12-06T10:05:00.794Z,21.10
2018-12-06T10:06:00.832Z,15.40
2018-12-06T10:07:00.780Z,14.80
2018-12-06T10:08:01.776Z,29.70
2018-12-06T10:09:03.780Z,35.30
2018-12-06T10:10:00.791Z,29.30
2018-12-06T10:11:00.761Z,29.70
2018-12-06T10:12:04.232Z,28.20
2018-12-06T10:13:00.708Z,18.90
2018-12-06T10:14:02.262Z,30.80
2018-12-06T10:15:00.690Z,32.00
2018-12-06T10:16:00.698Z,32.00
2018-12-06T10:17:00.747Z,26.50
2018-12-06T10:18:03.284Z,16.80
2018-12-06T10:19:03.245Z,49.20
2018-12-06T10:20:00.645Z,22.50
2018-12-06T10:21:00.654Z,38.30
2018-12-06T10:22:00.665Z,27.90
2018-12-06T10:23:00.617Z,28.40
2018-12-06T10:24:00.652Z,16.70
2018-12-06T10:25:01.257Z,8.90
2018-12-06T10:26:03.239Z,11.10
2018-12-06T10:27:02.213Z,21.00
2018-12-06T10:28:01.191Z,26.80
2018-12-06T10:29:00.559Z,13.60
2018-12-06T10:30:00.540Z,8.40
2018-12-06T10:31:03.229Z,24.40
2018-12-06T10:32:00.523Z,33.60
2018-12-06T10:33:00.506Z,18.40
2018-12-06T10:34:00.495Z,14.40
2018-12-06T10:35:00.500Z,44.40
2018-12-06T10:36:00.473Z,18.90
2018-12-06T10:37:02.239Z,28.30
2018-12-06T10:38:00.452Z,35.30
2018-12-06T10:39:00.457Z,24.60
2018-12-06T10:40:02.238Z,23.60
2018-12-06T10:41:00.422Z,24.40
2018-12-06T10:42:01.255Z,8.70
2018-12-06T10:43:00.415Z,36.50
2018-12-06T10:44:00.399Z,32.00
2018-12-06T10:45:00.413Z,31.10
2018-12-06T10:46:00.363Z,28.10
2018-12-06T10:47:07.529Z,8.40
2018-12-06T10:48:08.334Z,18.40
2018-12-06T10:49:00.331Z,36.60
2018-12-06T10:50:08.479Z,20.90
2018-12-06T10:51:07.701Z,18.20
2018-12-06T10:52:00.298Z,18.70
2018-12-06T10:53:00.313Z,32.10
2018-12-06T10:54:00.278Z,37.60
2018-12-06T10:55:00.281Z,19.70
2018-12-06T10:56:00.276Z,18.00
2018-12-06T10:57:00.255Z,29.00
2018-12-06T10:58:00.238Z,36.70
2018-12-06T10:59:00.220Z,36.20
2018-12-06T11:00:01.884Z,42.20
2018-12-06T11:01:00.202Z,31.40
2018-12-06T11:02:01.206Z,30.90
2018-12-06T11:03:00.180Z,17.70
2018-12-06T11:04:00.184Z,19.60
2018-12-06T11:05:00.171Z,22.30
2018-12-06T11:06:00.885Z,19.80
2018-12-06T11:07:01.887Z,30.00
2018-12-06T11:08:00.163Z,22.30
2018-12-06T11:09:00.117Z,7.30
2018-12-06T11:10:00.114Z,11.20
2018-12-06T11:11:00.096Z,17.90
2018-12-06T11:12:00.111Z,19.70
2018-12-06T11:13:00.087Z,23.40
2018-12-06T11:14:01.946Z,17.30
2018-12-06T11:15:00.063Z,23.20
2018-12-06T11:16:00.094Z,27.70
2018-12-06T11:17:00.029Z,22.80
2018-12-06T11:18:00.064Z,83.00
2018-12-06T11:19:00.074Z,31.90
2018-12-06T11:20:00.084Z,38.90
2018-12-06T11:20:59.998Z,28.80
2018-12-06T11:22:01.940Z,25.00
2018-12-06T11:22:59.994Z,46.70
2018-12-06T11:23:59.967Z,42.30
2018-12-06T11:24:59.987Z,44.40
2018-12-06T11:25:59.970Z,41.90
2018-12-06T11:26:59.934Z,26.80
2018-12-06T11:27:59.935Z,19.60
2018-12-06T11:29:01.887Z,31.20
2018-12-06T11:29:59.914Z,21.40
2018-12-06T11:30:59.912Z,23.60
2018-12-06T11:32:00.927Z,79.30
2018-12-06T11:32:59.870Z,35.60
2018-12-06T11:33:59.873Z,42.00
2018-12-06T11:34:59.863Z,25.90
2018-12-06T11:36:01.402Z,61.60
2018-12-06T11:36:59.846Z,40.70
2018-12-06T11:37:59.818Z,57.30
2018-12-06T11:38:59.803Z,20.00
2018-12-06T11:39:59.790Z,51.60
2018-12-06T11:40:59.804Z,36.10
2018-12-06T11:41:59.818Z,29.00
2018-12-06T11:43:00.367Z,34.10
2018-12-06T11:43:59.758Z,26.40
2018-12-06T11:44:59.764Z,22.60
2018-12-06T11:46:00.390Z,16.90
2018-12-06T11:46:59.756Z,14.20
2018-12-06T11:47:59.723Z,48.10
2018-12-06T11:48:59.742Z,34.60
2018-12-06T11:49:59.711Z,27.90
2018-12-06T11:50:59.695Z,40.20
2018-12-06T11:51:59.687Z,51.20
2018-12-06T11:52:59.679Z,43.70
2018-12-06T11:53:59.656Z,27.20
2018-12-06T11:54:59.657Z,15.50
2018-12-06T11:55:59.630Z,23.00
2018-12-06T11:56:59.646Z,15.70
2018-12-06T11:58:00.395Z,17.70
2018-12-06T11:58:59.620Z,16.20
2018-12-06T11:59:59.582Z,16.20
2018-12-06T12:00:59.608Z,14.90
2018-12-06T12:01:59.557Z,23.00
2018-12-06T12:02:59.550Z,16.80
2018-12-06T12:03:59.540Z,16.30
2018-12-06T12:04:59.528Z,22.20
2018-12-06T12:05:59.530Z,17.60
2018-12-06T12:06:59.500Z,11.60
2018-12-06T12:07:59.503Z,12.40
2018-12-06T12:08:59.489Z,15.30
2018-12-06T12:09:59.492Z,11.50
2018-12-06T12:10:59.478Z,11.40
2018-12-06T12:11:59.470Z,8.40
2018-12-06T12:12:59.446Z,7.40
2018-12-06T12:13:59.454Z,7.30
2018-12-06T12:14:59.420Z,6.40
2018-12-06T12:15:59.412Z,5.90
2018-12-06T12:16:59.438Z,6.00
2018-12-06T12:17:59.405Z,8.80
2018-12-06T12:18:59.383Z,6.00
2018-12-06T12:19:59.448Z,8.20
2018-12-06T12:20:59.369Z,7.20
2018-12-06T12:21:59.353Z,8.30
2018-12-06T12:22:59.345Z,10.40
2018-12-06T12:23:59.354Z,9.40
2018-12-06T12:24:59.312Z,10.50
2018-12-06T12:25:59.299Z,6.90
2018-12-06T12:26:59.891Z,6.90
2018-12-06T12:27:59.298Z,7.70
2018-12-06T12:28:59.277Z,6.50
2018-12-06T12:29:59.273Z,6.30
2018-12-06T12:30:59.262Z,6.30
2018-12-06T12:31:59.235Z,6.10
2018-12-06T12:32:59.230Z,6.30
2018-12-06T12:33:59.217Z,6.10
2018-12-06T12:34:59.253Z,5.90
2018-12-06T12:35:59.190Z,5.80
2018-12-06T12:36:59.181Z,6.80
2018-12-06T12:37:59.175Z,7.80
2018-12-06T12:38:59.257Z,6.30
2018-12-06T12:39:59.161Z,5.90
2018-12-06T12:40:59.155Z,6.50
2018-12-06T12:41:59.175Z,7.30
2018-12-06T12:42:59.133Z,6.10
2018-12-06T12:43:59.107Z,6.50
2018-12-06T12:44:59.116Z,6.50
2018-12-06T12:45:59.119Z,7.30
2018-12-06T12:46:59.090Z,6.70
2018-12-06T12:47:59.074Z,6.70
2018-12-06T12:48:59.058Z,6.60
2018-12-06T12:49:59.046Z,6.90
2018-12-06T12:50:59.043Z,6.20
2018-12-06T12:51:59.050Z,7.30
2018-12-06T12:52:59.031Z,6.70
2018-12-06T12:53:59.004Z,5.80
2018-12-06T12:54:59.000Z,6.60
2018-12-06T12:55:59.900Z,6.30
2018-12-06T12:57:01.901Z,7.10
2018-12-06T12:57:58.962Z,6.70
2018-12-06T12:58:59.002Z,7.00
2018-12-06T12:59:58.942Z,6.40
2018-12-06T13:01:00.881Z,6.10
2018-12-06T13:02:50.796Z,6.30
2018-12-06T13:03:50.763Z,6.10
2018-12-06T13:04:50.770Z,6.20
2018-12-06T13:06:42.619Z,6.30
2018-12-06T13:07:42.609Z,6.40
2018-12-06T13:08:42.600Z,6.30
2018-12-06T13:09:43.360Z,6.20